createdAt,value
2018-01-08T00:00:52.874Z,5.10
2018-01-08T00:01:52.825Z,5.30
2018-01-08T00:02:52.780Z,5.20
2018-01-08T00:03:52.735Z,5.60
2018-01-08T00:04:52.696Z,5.60
2018-01-08T00:05:52.642Z,5.70
2018-01-08T00:06:52.601Z,6.10
2018-01-08T00:07:52.559Z,5.90
2018-01-08T00:08:52.511Z,5.90
2018-01-08T00:09:52.497Z,5.80
2018-01-08T00:10:52.425Z,6.30
2018-01-08T00:11:52.379Z,5.50
2018-01-08T00:12:52.361Z,6.50
2018-01-08T00:13:52.292Z,5.80
2018-01-08T00:14:52.241Z,5.60
2018-01-08T00:15:52.197Z,5.80
2018-01-08T00:16:52.160Z,5.70
2018-01-08T00:17:52.108Z,6.30
2018-01-08T00:18:52.075Z,6.00
2018-01-08T00:19:52.020Z,5.20
2018-01-08T00:20:51.985Z,6.10
2018-01-08T00:21:51.943Z,6.50
2018-01-08T00:22:51.888Z,6.20
2018-01-08T00:23:51.844Z,5.70
2018-01-08T00:24:51.802Z,6.40
2018-01-08T00:25:51.760Z,6.10
2018-01-08T00:26:51.711Z,6.30
2018-01-08T00:27:51.673Z,5.70
2018-01-08T00:28:51.631Z,5.80
2018-01-08T00:29:51.585Z,5.40
2018-01-08T00:30:51.552Z,6.00
2018-01-08T00:31:51.489Z,6.20
2018-01-08T00:32:51.446Z,6.40
2018-01-08T00:33:51.402Z,5.40
2018-01-08T00:34:51.358Z,5.90
2018-01-08T00:35:51.474Z,6.00
2018-01-08T00:36:51.276Z,5.90
2018-01-08T00:37:51.225Z,5.60
2018-01-08T00:38:51.179Z,6.20
2018-01-08T00:39:51.135Z,6.10
2018-01-08T00:40:51.090Z,6.20
2018-01-08T00:41:51.049Z,6.10
2018-01-08T00:42:51.053Z,6.30
2018-01-08T00:43:50.955Z,6.30
2018-01-08T00:44:50.923Z,6.20
2018-01-08T00:45:50.977Z,6.60
2018-01-08T00:46:50.857Z,6.20
2018-01-08T00:47:50.858Z,6.40
2018-01-08T00:48:50.734Z,5.90
2018-01-08T00:49:50.685Z,5.70
2018-01-08T00:50:50.658Z,6.00
2018-01-08T00:51:50.597Z,6.60
2018-01-08T00:52:50.552Z,6.60
2018-01-08T00:53:50.509Z,6.40
2018-01-08T00:54:50.466Z,6.50
2018-01-08T00:55:50.417Z,6.20
2018-01-08T00:56:50.372Z,6.30
2018-01-08T00:57:50.346Z,6.60
2018-01-08T00:58:50.334Z,6.20
2018-01-08T00:59:50.248Z,5.90
2018-01-08T01:00:50.200Z,6.20
2018-01-08T01:01:50.183Z,6.00
2018-01-08T01:02:50.107Z,6.00
2018-01-08T01:03:50.062Z,6.10
2018-01-08T01:04:50.022Z,5.70
2018-01-08T01:05:49.972Z,5.30
2018-01-08T01:06:49.932Z,5.90
2018-01-08T01:07:49.884Z,5.90
2018-01-08T01:08:49.842Z,6.00
2018-01-08T01:09:49.805Z,6.40
2018-01-08T01:10:49.752Z,7.00
2018-01-08T01:11:49.711Z,6.80
2018-01-08T01:12:49.669Z,6.20
2018-01-08T01:13:49.620Z,6.30
2018-01-08T01:14:49.587Z,6.20
2018-01-08T01:15:49.539Z,6.50
2018-01-08T01:16:49.485Z,6.20
2018-01-08T01:17:49.445Z,6.40
2018-01-08T01:18:49.397Z,6.30
2018-01-08T01:19:49.399Z,5.90
2018-01-08T01:20:49.340Z,5.80
2018-01-08T01:21:49.281Z,6.50
2018-01-08T01:22:49.223Z,5.80
2018-01-08T01:23:49.189Z,6.20
2018-01-08T01:24:49.139Z,5.50
2018-01-08T01:25:49.085Z,6.80
2018-01-08T01:26:49.060Z,6.30
2018-01-08T01:27:49.003Z,7.40
2018-01-08T01:28:48.973Z,6.40
2018-01-08T01:29:48.910Z,6.00
2018-01-08T01:30:48.878Z,6.50
2018-01-08T01:31:48.816Z,6.20
2018-01-08T01:32:48.774Z,6.20
2018-01-08T01:33:48.740Z,5.80
2018-01-08T01:34:48.682Z,6.30
2018-01-08T01:35:48.641Z,6.60
2018-01-08T01:36:48.590Z,6.30
2018-01-08T01:37:48.553Z,6.40
2018-01-08T01:38:48.503Z,5.30
2018-01-08T01:39:48.474Z,6.70
2018-01-08T01:40:48.416Z,6.20
2018-01-08T01:41:48.371Z,6.60
2018-01-08T01:42:48.328Z,6.40
2018-01-08T01:43:48.280Z,6.40
2018-01-08T01:44:48.240Z,6.00
2018-01-08T01:45:48.202Z,6.40
2018-01-08T01:46:48.145Z,6.70
2018-01-08T01:47:48.106Z,6.60
2018-01-08T01:48:48.056Z,6.70
2018-01-08T01:49:48.033Z,6.80
2018-01-08T01:50:47.966Z,6.90
2018-01-08T01:51:47.922Z,6.10
2018-01-08T01:52:47.877Z,6.50
2018-01-08T01:53:47.832Z,6.80
2018-01-08T01:54:47.787Z,6.50
2018-01-08T01:55:47.752Z,6.70
2018-01-08T01:56:47.701Z,6.70
2018-01-08T01:57:47.666Z,6.30
2018-01-08T01:58:47.609Z,6.50
2018-01-08T01:59:47.581Z,6.80
2018-01-08T02:00:47.521Z,6.60
2018-01-08T02:01:47.512Z,6.50
2018-01-08T02:02:47.432Z,6.70
2018-01-08T02:03:47.407Z,6.50
2018-01-08T02:04:47.347Z,6.80
2018-01-08T02:05:47.299Z,6.60
2018-01-08T02:06:47.274Z,6.90
2018-01-08T02:07:47.222Z,7.20
2018-01-08T02:08:47.179Z,7.40
2018-01-08T02:09:47.131Z,6.70
2018-01-08T02:10:47.200Z,6.50
2018-01-08T02:11:47.036Z,7.20
2018-01-08T02:12:47.004Z,6.80
2018-01-08T02:13:46.953Z,7.30
2018-01-08T02:14:46.911Z,6.90
2018-01-08T02:15:46.864Z,6.90
2018-01-08T02:16:46.823Z,7.40
2018-01-08T02:17:46.761Z,6.60
2018-01-08T02:18:46.755Z,6.80
2018-01-08T02:19:46.675Z,7.20
2018-01-08T02:20:46.630Z,7.20
2018-01-08T02:21:46.582Z,6.90
2018-01-08T02:22:46.544Z,7.00
2018-01-08T02:23:46.495Z,6.90
2018-01-08T02:24:46.449Z,6.00
2018-01-08T02:25:46.405Z,6.70
2018-01-08T02:26:46.366Z,6.00
2018-01-08T02:27:46.313Z,7.00
2018-01-08T02:28:46.272Z,6.80
2018-01-08T02:29:46.230Z,6.90
2018-01-08T02:30:46.181Z,7.10
2018-01-08T02:31:46.146Z,6.60
2018-01-08T02:32:46.092Z,7.30
2018-01-08T02:33:46.047Z,7.10
2018-01-08T02:34:46.003Z,6.90
2018-01-08T02:35:45.965Z,6.40
2018-01-08T02:36:45.913Z,7.00
2018-01-08T02:37:45.871Z,7.00
2018-01-08T02:38:45.830Z,7.50
2018-01-08T02:39:45.779Z,7.50
2018-01-08T02:40:45.737Z,7.30
2018-01-08T02:41:45.694Z,7.50
2018-01-08T02:42:45.657Z,7.20
2018-01-08T02:43:45.627Z,7.50
2018-01-08T02:44:45.559Z,7.20
2018-01-08T02:45:45.510Z,7.90
2018-01-08T02:46:45.471Z,7.20
2018-01-08T02:47:45.434Z,7.90
2018-01-08T02:48:45.381Z,7.50
2018-01-08T02:49:45.346Z,7.70
2018-01-08T02:50:45.286Z,7.70
2018-01-08T02:51:45.258Z,6.50
2018-01-08T02:52:45.196Z,7.60
2018-01-08T02:53:45.180Z,7.60
2018-01-08T02:54:45.111Z,7.20
2018-01-08T02:55:45.104Z,8.10
2018-01-08T02:56:45.020Z,7.50
2018-01-08T02:57:44.975Z,7.70
2018-01-08T02:58:44.932Z,7.70
2018-01-08T02:59:44.908Z,7.60
2018-01-08T03:00:44.840Z,8.10
2018-01-08T03:01:44.802Z,8.70
2018-01-08T03:02:44.768Z,7.80
2018-01-08T03:03:44.705Z,8.60
2018-01-08T03:04:44.729Z,8.20
2018-01-08T03:05:44.618Z,8.00
2018-01-08T03:06:44.578Z,8.50
2018-01-08T03:07:44.526Z,8.60
2018-01-08T03:08:44.480Z,8.70
2018-01-08T03:09:44.439Z,8.10
2018-01-08T03:10:44.395Z,8.60
2018-01-08T03:11:44.348Z,8.80
2018-01-08T03:12:44.307Z,8.50
2018-01-08T03:13:44.260Z,8.60
2018-01-08T03:14:44.212Z,8.40
2018-01-08T03:15:44.185Z,8.50
2018-01-08T03:16:44.126Z,8.70
2018-01-08T03:17:44.085Z,8.80
2018-01-08T03:18:44.038Z,8.60
2018-01-08T03:19:43.989Z,9.00
2018-01-08T03:20:43.944Z,8.80
2018-01-08T03:21:43.900Z,8.80
2018-01-08T03:22:43.852Z,9.50
2018-01-08T03:23:43.810Z,9.50
2018-01-08T03:24:43.771Z,9.00
2018-01-08T03:25:43.720Z,8.30
2018-01-08T03:26:43.679Z,8.80
2018-01-08T03:27:43.631Z,8.90
2018-01-08T03:28:43.587Z,9.50
2018-01-08T03:29:43.543Z,9.10
2018-01-08T03:30:43.499Z,9.90
2018-01-08T03:31:43.471Z,9.50
2018-01-08T03:32:43.440Z,9.50
2018-01-08T03:33:43.365Z,9.30
2018-01-08T03:34:43.319Z,8.90
2018-01-08T03:35:43.272Z,9.00
2018-01-08T03:36:43.233Z,8.40
2018-01-08T03:37:43.189Z,9.90
2018-01-08T03:38:43.141Z,8.80
2018-01-08T03:39:43.092Z,9.10
2018-01-08T03:40:43.050Z,9.50
2018-01-08T03:41:43.005Z,9.50
2018-01-08T03:42:42.961Z,9.00
2018-01-08T03:43:42.917Z,8.90
2018-01-08T03:44:42.876Z,9.20
2018-01-08T03:45:42.829Z,9.00
2018-01-08T03:46:42.787Z,8.80
2018-01-08T03:47:42.736Z,9.50
2018-01-08T03:48:42.699Z,8.70
2018-01-08T03:49:42.647Z,9.10
2018-01-08T03:50:42.606Z,9.00
2018-01-08T03:51:42.563Z,9.50
2018-01-08T03:52:42.515Z,9.70
2018-01-08T03:53:42.466Z,9.20
2018-01-08T03:54:42.425Z,9.80
2018-01-08T03:55:42.382Z,9.90
2018-01-08T03:56:42.335Z,9.10
2018-01-08T03:57:42.290Z,9.30
2018-01-08T03:58:42.244Z,8.50
2018-01-08T03:59:42.214Z,8.80
2018-01-08T04:00:42.157Z,9.70
2018-01-08T04:01:42.108Z,9.20
2018-01-08T04:02:42.066Z,8.90
2018-01-08T04:03:42.031Z,9.30
2018-01-08T04:04:41.977Z,8.70
2018-01-08T04:05:41.931Z,8.30
2018-01-08T04:06:41.887Z,9.50
2018-01-08T04:07:41.844Z,9.00
2018-01-08T04:08:41.797Z,8.80
2018-01-08T04:09:41.755Z,9.20
2018-01-08T04:10:41.708Z,8.70
2018-01-08T04:11:41.671Z,9.50
2018-01-08T04:12:41.620Z,9.20
2018-01-08T04:13:41.575Z,9.30
2018-01-08T04:14:41.530Z,8.90
2018-01-08T04:15:41.486Z,8.50
2018-01-08T04:16:41.440Z,8.80
2018-01-08T04:17:41.395Z,8.80
2018-01-08T04:18:41.348Z,9.20
2018-01-08T04:19:41.304Z,9.50
2018-01-08T04:20:41.272Z,9.70
2018-01-08T04:21:41.217Z,9.30
2018-01-08T04:22:41.172Z,9.20
2018-01-08T04:23:41.128Z,9.20
2018-01-08T04:24:41.088Z,9.30
2018-01-08T04:25:41.036Z,9.80
2018-01-08T04:26:40.990Z,8.70
2018-01-08T04:27:40.953Z,9.10
2018-01-08T04:28:40.905Z,9.10
2018-01-08T04:29:40.866Z,8.30
2018-01-08T04:30:40.812Z,8.20
2018-01-08T04:31:40.768Z,8.90
2018-01-08T04:32:40.725Z,9.20
2018-01-08T04:33:40.683Z,9.30
2018-01-08T04:34:40.632Z,8.60
2018-01-08T04:35:40.590Z,9.00
2018-01-08T04:36:40.555Z,9.00
2018-01-08T04:37:40.522Z,7.80
2018-01-08T04:38:40.462Z,8.40
2018-01-08T04:39:40.412Z,9.30
2018-01-08T04:40:40.370Z,8.60
2018-01-08T04:41:40.318Z,8.30
2018-01-08T04:42:40.272Z,8.30
2018-01-08T04:43:40.237Z,8.60
2018-01-08T04:44:40.184Z,8.40
2018-01-08T04:45:40.137Z,8.30
2018-01-08T04:46:40.101Z,8.50
2018-01-08T04:47:40.049Z,8.50
2018-01-08T04:48:40.006Z,8.10
2018-01-08T04:49:39.960Z,8.20
2018-01-08T04:50:39.914Z,7.70
2018-01-08T04:51:39.878Z,7.90
2018-01-08T04:52:39.828Z,8.50
2018-01-08T04:53:39.779Z,8.30
2018-01-08T04:54:39.751Z,7.30
2018-01-08T04:55:39.688Z,5.20
2018-01-08T04:56:39.648Z,9.20
2018-01-08T04:57:39.600Z,9.00
2018-01-08T04:58:39.555Z,8.80
2018-01-08T04:59:39.520Z,7.90
2018-01-08T05:00:39.465Z,8.80
2018-01-08T05:01:39.421Z,8.80
2018-01-08T05:02:39.384Z,9.40
2018-01-08T05:03:39.331Z,8.40
2018-01-08T05:04:39.287Z,9.70
2018-01-08T05:05:39.240Z,9.50
2018-01-08T05:06:39.201Z,8.60
2018-01-08T05:07:39.156Z,8.20
2018-01-08T05:08:39.107Z,9.40
2018-01-08T05:09:39.064Z,8.80
2018-01-08T05:10:39.019Z,7.30
2018-01-08T05:11:38.989Z,7.40
2018-01-08T05:12:38.929Z,8.10
2018-01-08T05:13:38.883Z,9.50
2018-01-08T05:14:38.841Z,10.20
2018-01-08T05:15:38.794Z,10.20
2018-01-08T05:16:38.748Z,9.40
2018-01-08T05:17:38.701Z,10.20
2018-01-08T05:18:38.655Z,10.10
2018-01-08T05:19:38.619Z,9.00
2018-01-08T05:20:38.566Z,9.50
2018-01-08T05:21:38.524Z,10.00
2018-01-08T05:22:38.478Z,9.10
2018-01-08T05:23:38.430Z,9.90
2018-01-08T05:24:38.394Z,9.80
2018-01-08T05:25:38.349Z,8.90
2018-01-08T05:26:38.303Z,9.10
2018-01-08T05:27:38.250Z,9.10
2018-01-08T05:28:38.211Z,9.60
2018-01-08T05:29:38.163Z,9.80
2018-01-08T05:30:38.121Z,9.90
2018-01-08T05:31:38.080Z,9.70
2018-01-08T05:32:38.026Z,9.40
2018-01-08T05:33:37.982Z,9.90
2018-01-08T05:34:37.940Z,10.10
2018-01-08T05:35:37.892Z,9.60
2018-01-08T05:36:37.854Z,9.70
2018-01-08T05:37:37.811Z,9.40
2018-01-08T05:38:37.760Z,10.10
2018-01-08T05:39:37.715Z,8.70
2018-01-08T05:40:37.683Z,8.90
2018-01-08T05:41:37.624Z,9.60
2018-01-08T05:42:37.583Z,8.80
2018-01-08T05:43:37.536Z,9.30
2018-01-08T05:44:37.491Z,9.00
2018-01-08T05:45:37.444Z,9.70
2018-01-08T05:46:37.398Z,9.40
2018-01-08T05:47:37.355Z,9.30
2018-01-08T05:48:37.317Z,9.40
2018-01-08T05:49:37.268Z,9.10
2018-01-08T05:50:37.217Z,8.20
2018-01-08T05:51:37.175Z,8.90
2018-01-08T05:52:37.133Z,8.90
2018-01-08T05:53:37.081Z,8.40
2018-01-08T05:54:37.037Z,8.50
2018-01-08T05:55:36.994Z,8.70
2018-01-08T05:56:36.948Z,8.20
2018-01-08T05:57:36.901Z,8.70
2018-01-08T05:58:36.876Z,8.50
2018-01-08T05:59:36.812Z,8.10
2018-01-08T06:00:36.768Z,8.40
2018-01-08T06:01:36.722Z,7.50
2018-01-08T06:02:36.679Z,8.00
2018-01-08T06:03:36.633Z,7.80
2018-01-08T06:04:36.586Z,8.50
2018-01-08T06:05:36.542Z,7.80
2018-01-08T06:06:36.496Z,7.50
2018-01-08T06:07:36.453Z,8.00
2018-01-08T06:08:36.408Z,8.50
2018-01-08T06:09:36.360Z,8.40
2018-01-08T06:10:36.412Z,8.10
2018-01-08T06:11:36.272Z,7.90
2018-01-08T06:12:36.226Z,8.50
2018-01-08T06:13:36.183Z,7.90
2018-01-08T06:14:36.136Z,7.90
2018-01-08T06:15:36.094Z,8.00
2018-01-08T06:16:36.046Z,8.10
2018-01-08T06:17:36.010Z,8.10
2018-01-08T06:18:35.956Z,8.20
2018-01-08T06:19:35.913Z,8.10
2018-01-08T06:20:35.875Z,8.20
2018-01-08T06:21:35.819Z,8.20
2018-01-08T06:22:35.778Z,7.90
2018-01-08T06:23:35.733Z,7.20
2018-01-08T06:24:35.687Z,7.90
2018-01-08T06:25:35.642Z,8.10
2018-01-08T06:26:35.598Z,7.90
2018-01-08T06:27:35.559Z,7.60
2018-01-08T06:28:35.509Z,7.80
2018-01-08T06:29:35.461Z,7.40
2018-01-08T06:30:35.422Z,7.80
2018-01-08T06:31:35.388Z,8.20
2018-01-08T06:32:35.335Z,7.60
2018-01-08T06:33:35.295Z,8.20
2018-01-08T06:34:35.234Z,8.60
2018-01-08T06:35:35.192Z,7.80
2018-01-08T06:36:35.148Z,8.20
2018-01-08T06:37:35.101Z,8.70
2018-01-08T06:38:35.062Z,7.90
2018-01-08T06:39:35.013Z,8.20
2018-01-08T06:40:35.005Z,8.10
2018-01-08T06:41:34.918Z,8.70
2018-01-08T06:42:34.877Z,8.30
2018-01-08T06:43:34.843Z,8.00
2018-01-08T06:44:34.794Z,8.20
2018-01-08T06:45:34.742Z,8.70
2018-01-08T06:46:34.695Z,9.10
2018-01-08T06:47:34.652Z,8.70
2018-01-08T06:48:34.603Z,8.90
2018-01-08T06:49:34.559Z,8.30
2018-01-08T06:50:34.516Z,9.10
2018-01-08T06:51:34.468Z,9.30
2018-01-08T06:52:34.426Z,8.20
2018-01-08T06:53:34.380Z,8.40
2018-01-08T06:54:34.335Z,8.60
2018-01-08T06:55:34.290Z,9.40
2018-01-08T06:56:34.244Z,8.50
2018-01-08T06:57:34.198Z,8.70
2018-01-08T06:58:34.153Z,8.70
2018-01-08T06:59:34.109Z,9.10
2018-01-08T07:00:34.763Z,9.30
2018-01-08T07:01:34.017Z,8.30
2018-01-08T07:02:33.975Z,8.70
2018-01-08T07:03:33.941Z,8.10
2018-01-08T07:04:33.884Z,8.60
2018-01-08T07:05:33.837Z,8.80
2018-01-08T07:06:33.791Z,8.60
2018-01-08T07:07:33.750Z,8.70
2018-01-08T07:08:33.701Z,8.10
2018-01-08T07:09:33.658Z,8.40
2018-01-08T07:10:33.613Z,8.80
2018-01-08T07:11:33.564Z,8.20
2018-01-08T07:12:33.523Z,8.00
2018-01-08T07:13:33.478Z,8.70
2018-01-08T07:14:33.434Z,8.80
2018-01-08T07:15:33.395Z,8.00
2018-01-08T07:16:33.342Z,8.50
2018-01-08T07:17:33.314Z,8.30
2018-01-08T07:18:33.253Z,8.20
2018-01-08T07:19:33.207Z,8.20
2018-01-08T07:20:33.161Z,8.60
2018-01-08T07:21:33.114Z,8.20
2018-01-08T07:22:33.072Z,8.50
2018-01-08T07:23:33.028Z,8.90
2018-01-08T07:24:32.990Z,9.10
2018-01-08T07:25:32.936Z,9.00
2018-01-08T07:26:32.897Z,8.30
2018-01-08T07:27:32.845Z,8.80
2018-01-08T07:28:32.803Z,8.40
2018-01-08T07:29:32.756Z,7.60
2018-01-08T07:30:32.709Z,8.60
2018-01-08T07:31:32.668Z,8.20
2018-01-08T07:32:32.621Z,8.30
2018-01-08T07:33:32.576Z,8.70
2018-01-08T07:34:32.531Z,8.50
2018-01-08T07:35:32.485Z,8.30
2018-01-08T07:36:32.442Z,8.50
2018-01-08T07:37:32.396Z,8.60
2018-01-08T07:38:32.353Z,9.20
2018-01-08T07:39:32.308Z,8.30
2018-01-08T07:40:32.268Z,9.20
2018-01-08T07:41:32.214Z,9.60
2018-01-08T07:42:32.194Z,9.40
2018-01-08T07:43:32.692Z,9.40
2018-01-08T07:44:32.080Z,11.20
2018-01-08T07:45:32.036Z,10.00
2018-01-08T07:46:31.988Z,10.20
2018-01-08T07:47:31.944Z,9.40
2018-01-08T07:48:31.899Z,9.00
2018-01-08T07:49:31.858Z,9.40
2018-01-08T07:50:31.920Z,9.40
2018-01-08T07:51:31.809Z,9.80
2018-01-08T07:52:31.720Z,9.40
2018-01-08T07:53:31.678Z,9.10
2018-01-08T07:54:31.637Z,9.00
2018-01-08T07:55:31.694Z,8.70
2018-01-08T07:56:31.553Z,9.30
2018-01-08T07:57:31.511Z,9.60
2018-01-08T07:58:31.453Z,9.20
2018-01-08T07:59:31.406Z,9.60
2018-01-08T08:00:31.363Z,9.00
2018-01-08T08:01:31.322Z,10.10
2018-01-08T08:02:31.277Z,9.80
2018-01-08T08:03:31.229Z,9.80
2018-01-08T08:04:31.182Z,9.00
2018-01-08T08:05:31.138Z,8.60
2018-01-08T08:06:31.096Z,9.10
2018-01-08T08:07:31.050Z,8.00
2018-01-08T08:08:31.004Z,8.40
2018-01-08T08:09:30.955Z,8.10
2018-01-08T08:10:30.912Z,9.00
2018-01-08T08:11:30.865Z,8.90
2018-01-08T08:12:30.820Z,9.90
2018-01-08T08:13:30.800Z,12.30
2018-01-08T08:14:30.732Z,10.80
2018-01-08T08:15:30.689Z,12.20
2018-01-08T08:16:30.647Z,12.30
2018-01-08T08:17:30.595Z,11.10
2018-01-08T08:18:30.558Z,10.10
2018-01-08T08:19:30.507Z,10.70
2018-01-08T08:20:30.468Z,11.30
2018-01-08T08:21:30.415Z,11.20
2018-01-08T08:22:30.379Z,11.30
2018-01-08T08:23:30.329Z,10.20
2018-01-08T08:24:30.286Z,10.50
2018-01-08T08:25:30.237Z,10.90
2018-01-08T08:26:30.198Z,10.20
2018-01-08T08:27:30.150Z,13.40
2018-01-08T08:28:30.117Z,13.20
2018-01-08T08:29:30.064Z,10.90
2018-01-08T08:30:30.027Z,8.20
2018-01-08T08:31:29.969Z,8.00
2018-01-08T08:32:29.928Z,8.60
2018-01-08T08:33:29.882Z,7.80
2018-01-08T08:34:29.836Z,7.00
2018-01-08T08:35:29.808Z,7.50
2018-01-08T08:36:29.748Z,7.00
2018-01-08T08:37:29.699Z,7.30
2018-01-08T08:38:29.657Z,6.30
2018-01-08T08:39:29.609Z,6.50
2018-01-08T08:40:29.610Z,6.70
2018-01-08T08:41:29.520Z,6.10
2018-01-08T08:42:29.481Z,6.30
2018-01-08T08:43:29.433Z,6.00
2018-01-08T08:44:29.392Z,6.50
2018-01-08T08:45:29.343Z,6.40
2018-01-08T08:46:29.307Z,6.40
2018-01-08T08:47:29.252Z,6.40
2018-01-08T08:48:29.239Z,5.80
2018-01-08T08:49:29.165Z,6.40
2018-01-08T08:50:29.122Z,6.60
2018-01-08T08:51:29.075Z,6.30
2018-01-08T08:52:29.036Z,6.00
2018-01-08T08:53:28.986Z,6.00
2018-01-08T08:54:28.942Z,5.50
2018-01-08T08:55:28.899Z,5.80
2018-01-08T08:56:28.860Z,6.00
2018-01-08T08:57:28.808Z,6.00
2018-01-08T08:58:28.770Z,5.70
2018-01-08T08:59:28.751Z,6.20
2018-01-08T09:00:28.712Z,5.80
2018-01-08T09:01:28.632Z,6.10
2018-01-08T09:02:28.587Z,7.10
2018-01-08T09:03:28.540Z,7.00
2018-01-08T09:04:28.500Z,6.30
2018-01-08T09:05:28.452Z,6.30
2018-01-08T09:06:28.406Z,5.50
2018-01-08T09:07:28.363Z,5.10
2018-01-08T09:08:28.319Z,6.10
2018-01-08T09:09:28.282Z,5.60
2018-01-08T09:10:28.236Z,5.60
2018-01-08T09:11:28.188Z,5.50
2018-01-08T09:12:28.158Z,5.70
2018-01-08T09:13:28.099Z,5.80
2018-01-08T09:14:28.055Z,6.30
2018-01-08T09:15:28.008Z,5.60
2018-01-08T09:16:27.964Z,5.60
2018-01-08T09:17:27.919Z,5.90
2018-01-08T09:18:27.876Z,5.80
2018-01-08T09:19:27.840Z,6.20
2018-01-08T09:20:27.787Z,6.40
2018-01-08T09:21:27.742Z,6.70
2018-01-08T09:22:27.698Z,6.10
2018-01-08T09:23:27.654Z,7.00
2018-01-08T09:24:27.610Z,6.50
2018-01-08T09:25:27.566Z,9.20
2018-01-08T09:26:27.521Z,9.70
2018-01-08T09:27:27.479Z,10.40
2018-01-08T09:28:27.432Z,10.00
2018-01-08T09:29:27.389Z,9.20
2018-01-08T09:30:27.345Z,7.30
2018-01-08T09:31:27.305Z,9.00
2018-01-08T09:32:27.262Z,7.70
2018-01-08T09:33:27.214Z,9.60
2018-01-08T09:34:27.168Z,9.30
2018-01-08T09:35:27.193Z,7.20
2018-01-08T09:36:27.099Z,8.00
2018-01-08T09:37:27.100Z,7.20
2018-01-08T09:38:27.160Z,5.80
2018-01-08T09:39:26.951Z,6.80
2018-01-08T09:40:26.940Z,7.20
2018-01-08T09:41:26.890Z,6.40
2018-01-08T09:42:26.835Z,6.80
2018-01-08T09:43:26.784Z,7.50
2018-01-08T09:44:26.730Z,7.10
2018-01-08T09:45:26.699Z,7.10
2018-01-08T09:46:26.644Z,6.80
2018-01-08T09:47:26.604Z,6.10
2018-01-08T09:48:26.561Z,6.50
2018-01-08T09:49:26.510Z,6.20
2018-01-08T09:50:26.473Z,5.90
2018-01-08T09:51:26.434Z,5.60
2018-01-08T09:52:26.386Z,5.30
2018-01-08T09:53:26.334Z,4.80
2018-01-08T09:54:26.304Z,4.90
2018-01-08T09:55:26.249Z,4.80
2018-01-08T09:56:26.211Z,5.40
2018-01-08T09:57:26.173Z,6.10
2018-01-08T09:58:26.113Z,5.60
2018-01-08T09:59:26.071Z,5.20
2018-01-08T10:00:26.027Z,5.60
2018-01-08T10:01:25.989Z,5.00
2018-01-08T10:02:25.944Z,4.80
2018-01-08T10:03:25.905Z,4.80
2018-01-08T10:04:25.852Z,4.50
2018-01-08T10:05:25.814Z,4.70
2018-01-08T10:06:25.761Z,4.80
2018-01-08T10:07:25.722Z,4.60
2018-01-08T10:08:25.678Z,5.00
2018-01-08T10:09:25.636Z,4.50
2018-01-08T10:10:25.592Z,4.50
2018-01-08T10:11:25.557Z,4.70
2018-01-08T10:12:25.512Z,4.70
2018-01-08T10:13:25.480Z,4.30
2018-01-08T10:14:25.422Z,4.50
2018-01-08T10:15:25.372Z,4.20
2018-01-08T10:16:25.331Z,4.00
2018-01-08T10:17:25.288Z,4.10
2018-01-08T10:18:25.243Z,3.90
2018-01-08T10:19:25.202Z,4.20
2018-01-08T10:20:25.157Z,4.50
2018-01-08T10:21:25.111Z,4.20
2018-01-08T10:22:25.067Z,4.20
2018-01-08T10:23:25.042Z,3.50
2018-01-08T10:24:24.984Z,3.60
2018-01-08T10:25:24.946Z,4.00
2018-01-08T10:26:24.892Z,4.10
2018-01-08T10:27:24.859Z,3.70
2018-01-08T10:28:24.810Z,3.80
2018-01-08T10:29:24.773Z,4.00
2018-01-08T10:30:24.724Z,3.90
2018-01-08T10:31:24.682Z,3.90
2018-01-08T10:32:24.640Z,3.70
2018-01-08T10:33:24.590Z,3.60
2018-01-08T10:34:24.562Z,3.50
2018-01-08T10:35:24.508Z,2.90
2018-01-08T10:36:24.462Z,3.90
2018-01-08T10:37:24.418Z,3.40
2018-01-08T10:38:24.382Z,3.00
2018-01-08T10:39:24.331Z,3.40
2018-01-08T10:40:24.322Z,3.60
2018-01-08T10:41:24.242Z,4.30
2018-01-08T10:42:24.198Z,4.20
2018-01-08T10:43:24.161Z,4.40
2018-01-08T10:44:24.160Z,4.10
2018-01-08T10:45:24.071Z,4.20
2018-01-08T10:46:24.132Z,3.50
2018-01-08T10:47:23.988Z,4.30
2018-01-08T10:48:23.947Z,3.90
2018-01-08T10:49:23.892Z,4.50
2018-01-08T10:50:23.850Z,4.20
2018-01-08T10:51:23.819Z,3.60
2018-01-08T10:52:23.766Z,3.50
2018-01-08T10:53:23.722Z,3.90
2018-01-08T10:54:23.676Z,3.90
2018-01-08T10:55:23.638Z,3.80
2018-01-08T10:56:23.596Z,3.60
2018-01-08T10:57:23.575Z,3.50
2018-01-08T10:58:23.504Z,3.90
2018-01-08T10:59:23.461Z,4.30
2018-01-08T11:00:23.421Z,3.90
2018-01-08T11:01:23.382Z,3.90
2018-01-08T11:02:23.366Z,3.50
2018-01-08T11:03:23.288Z,3.70
2018-01-08T11:04:23.294Z,3.80
2018-01-08T11:05:23.202Z,4.20
2018-01-08T11:06:23.158Z,3.80
2018-01-08T11:07:23.114Z,3.80
2018-01-08T11:08:23.069Z,3.50
2018-01-08T11:09:23.027Z,3.90
2018-01-08T11:10:22.982Z,3.30
2018-01-08T11:11:22.959Z,3.90
2018-01-08T11:12:22.916Z,3.50
2018-01-08T11:13:22.858Z,3.60
2018-01-08T11:14:22.820Z,3.70
2018-01-08T11:15:22.811Z,4.20
2018-01-08T11:16:22.725Z,3.50
2018-01-08T11:17:22.700Z,3.20
2018-01-08T11:18:22.723Z,4.40
2018-01-08T11:19:22.598Z,3.20
2018-01-08T11:20:22.553Z,3.90
2018-01-08T11:21:22.511Z,3.50
2018-01-08T11:22:22.470Z,3.60
2018-01-08T11:23:22.424Z,3.60
2018-01-08T11:24:22.384Z,3.40
2018-01-08T11:25:22.336Z,3.20
2018-01-08T11:26:22.294Z,3.10
2018-01-08T11:27:22.254Z,3.80
2018-01-08T11:28:22.221Z,3.50
2018-01-08T11:29:22.165Z,3.80
2018-01-08T11:30:22.121Z,3.70
2018-01-08T11:31:22.077Z,3.50
2018-01-08T11:32:22.046Z,4.00
2018-01-08T11:33:21.996Z,3.60
2018-01-08T11:34:21.954Z,4.20
2018-01-08T11:35:21.908Z,4.50
2018-01-08T11:36:21.862Z,4.40
2018-01-08T11:37:21.825Z,3.60
2018-01-08T11:38:21.782Z,3.90
2018-01-08T11:39:21.732Z,4.00
2018-01-08T11:40:21.689Z,3.80
2018-01-08T11:41:21.647Z,4.20
2018-01-08T11:42:21.607Z,4.90
2018-01-08T11:43:21.564Z,4.20
2018-01-08T11:44:21.525Z,5.10
2018-01-08T11:45:21.474Z,4.20
2018-01-08T11:46:21.442Z,4.50
2018-01-08T11:47:21.395Z,4.80
2018-01-08T11:48:21.355Z,4.60
2018-01-08T11:49:21.303Z,3.90
2018-01-08T11:50:21.256Z,4.20
2018-01-08T11:51:21.218Z,4.10
2018-01-08T11:52:21.186Z,4.10
2018-01-08T11:53:21.127Z,4.60
2018-01-08T11:54:21.081Z,5.20
2018-01-08T11:55:21.039Z,4.80
2018-01-08T11:56:20.997Z,4.70
2018-01-08T11:57:20.958Z,3.90
2018-01-08T11:58:20.908Z,3.60
2018-01-08T11:59:20.866Z,4.80
2018-01-08T12:00:20.835Z,5.00
2018-01-08T12:01:20.783Z,3.30
2018-01-08T12:02:20.742Z,3.50
2018-01-08T12:03:20.696Z,3.50
2018-01-08T12:04:20.651Z,3.80
2018-01-08T12:05:20.608Z,3.80
2018-01-08T12:06:20.564Z,4.40
2018-01-08T12:07:20.524Z,3.70
2018-01-08T12:08:20.483Z,4.30
2018-01-08T12:09:20.435Z,3.90
2018-01-08T12:10:20.395Z,4.00
2018-01-08T12:11:20.348Z,3.80
2018-01-08T12:12:20.310Z,3.50
2018-01-08T12:13:20.262Z,3.20
2018-01-08T12:14:20.220Z,3.20
2018-01-08T12:15:20.178Z,2.90
2018-01-08T12:16:20.140Z,3.70
2018-01-08T12:17:20.089Z,3.50
2018-01-08T12:18:20.048Z,3.00
2018-01-08T12:19:20.004Z,3.50
2018-01-08T12:20:19.987Z,3.50
2018-01-08T12:21:19.918Z,3.70
2018-01-08T12:22:19.876Z,3.80
2018-01-08T12:23:19.836Z,3.50
2018-01-08T12:24:19.799Z,3.90
2018-01-08T12:25:19.751Z,3.30
2018-01-08T12:26:19.703Z,3.10
2018-01-08T12:27:19.659Z,3.90
2018-01-08T12:28:19.618Z,3.50
2018-01-08T12:29:19.573Z,3.70
2018-01-08T12:30:19.530Z,3.80
2018-01-08T12:31:19.486Z,3.20
2018-01-08T12:32:19.444Z,3.80
2018-01-08T12:33:19.407Z,3.60
2018-01-08T12:34:19.361Z,3.80
2018-01-08T12:35:19.312Z,3.30
2018-01-08T12:36:19.272Z,3.50
2018-01-08T12:37:19.253Z,3.90
2018-01-08T12:38:19.220Z,3.80
2018-01-08T12:39:19.142Z,3.70
2018-01-08T12:40:19.106Z,3.50
2018-01-08T12:41:19.055Z,4.10
2018-01-08T12:42:19.013Z,4.50
2018-01-08T12:43:18.972Z,4.10
2018-01-08T12:44:18.928Z,4.10
2018-01-08T12:45:18.880Z,3.90
2018-01-08T12:46:18.840Z,4.50
2018-01-08T12:47:18.803Z,4.10
2018-01-08T12:48:18.754Z,3.90
2018-01-08T12:49:18.709Z,4.60
2018-01-08T12:50:18.668Z,4.60
2018-01-08T12:51:18.637Z,5.00
2018-01-08T12:52:18.583Z,4.30
2018-01-08T12:53:18.541Z,3.90
2018-01-08T12:54:18.501Z,3.90
2018-01-08T12:55:18.453Z,4.20
2018-01-08T12:56:18.409Z,3.90
2018-01-08T12:57:18.373Z,4.10
2018-01-08T12:58:18.326Z,4.70
2018-01-08T12:59:18.281Z,4.00
2018-01-08T13:00:18.245Z,4.70
2018-01-08T13:01:18.199Z,4.10
2018-01-08T13:02:18.154Z,4.40
2018-01-08T13:03:18.110Z,3.90
2018-01-08T13:04:18.066Z,4.70
2018-01-08T13:05:18.024Z,5.00
2018-01-08T13:06:17.989Z,4.30
2018-01-08T13:07:17.944Z,3.80
2018-01-08T13:08:17.898Z,3.50
2018-01-08T13:09:17.853Z,4.40
2018-01-08T13:10:17.826Z,4.70
2018-01-08T13:11:17.771Z,4.00
2018-01-08T13:12:17.732Z,3.90
2018-01-08T13:13:17.687Z,3.80
2018-01-08T13:14:17.640Z,3.70
2018-01-08T13:15:17.596Z,4.00
2018-01-08T13:16:17.553Z,3.90
2018-01-08T13:17:17.510Z,3.20